createdAt,value
2022-12-03T00:02:18.724Z,21.90
2022-12-03T00:04:45.965Z,21.88
2022-12-03T00:07:13.089Z,21.85
2022-12-03T00:09:40.185Z,21.88
2022-12-03T00:12:07.350Z,21.88
2022-12-03T00:14:36.161Z,21.82
2022-12-03T00:17:05.940Z,21.84
2022-12-03T00:19:34.389Z,21.80
2022-12-03T00:22:01.486Z,21.75
2022-12-03T00:24:28.592Z,21.78
2022-12-03T00:26:56.013Z,21.74
2022-12-03T00:29:23.100Z,21.76
2022-12-03T00:31:50.203Z,21.57
2022-12-03T00:34:17.347Z,21.79
2022-12-03T00:36:45.850Z,21.79
2022-12-03T00:39:13.005Z,21.79
2022-12-03T00:41:40.191Z,21.82
2022-12-03T00:44:07.302Z,21.88
2022-12-03T00:46:34.444Z,21.89
2022-12-03T00:49:01.575Z,21.87
2022-12-03T00:51:28.684Z,21.83
2022-12-03T00:53:57.172Z,21.81
2022-12-03T00:56:24.285Z,21.79
2022-12-03T00:58:51.362Z,21.77
2022-12-03T01:01:18.646Z,21.76
2022-12-03T01:03:45.828Z,21.70
2022-12-03T01:06:12.973Z,21.77
2022-12-03T01:08:40.147Z,21.76
2022-12-03T01:11:08.646Z,21.75
2022-12-03T01:13:35.741Z,21.73
2022-12-03T01:16:02.904Z,21.69
2022-12-03T01:18:30.292Z,21.67
2022-12-03T01:20:57.379Z,21.63
2022-12-03T01:23:24.490Z,21.65
2022-12-03T01:25:51.577Z,21.71
2022-12-03T01:28:20.011Z,21.71
2022-12-03T01:30:47.178Z,21.75
2022-12-03T01:33:14.371Z,21.71
2022-12-03T01:35:41.462Z,21.70
2022-12-03T01:38:08.572Z,21.80
2022-12-03T01:40:35.688Z,21.79
2022-12-03T01:43:02.796Z,21.78
2022-12-03T01:45:31.269Z,21.65
2022-12-03T01:47:58.509Z,21.75
2022-12-03T01:50:30.296Z,21.74
2022-12-03T01:53:01.062Z,21.73
2022-12-03T01:55:28.649Z,21.70
2022-12-03T01:57:58.687Z,21.68
2022-12-03T02:03:25.857Z,21.66
2022-12-03T02:05:53.330Z,21.59
2022-12-03T02:08:31.194Z,21.64
2022-12-03T02:11:02.051Z,21.62
2022-12-03T02:13:29.325Z,21.64
2022-12-03T02:15:56.742Z,21.59
2022-12-03T02:18:25.629Z,21.61
2022-12-03T02:21:01.671Z,21.61
2022-12-03T02:23:35.388Z,21.62
2022-12-03T02:26:04.050Z,21.65
2022-12-03T02:28:31.514Z,21.66
2022-12-03T02:30:58.650Z,21.66
2022-12-03T02:33:25.827Z,21.68
2022-12-03T02:35:53.026Z,21.71
2022-12-03T02:38:22.946Z,21.69
2022-12-03T02:40:53.578Z,21.72
2022-12-03T02:43:23.663Z,21.68
2022-12-03T02:45:53.316Z,21.66
2022-12-03T02:48:25.525Z,21.65
2022-12-03T02:50:54.506Z,21.66
2022-12-03T02:53:26.344Z,21.55
2022-12-03T02:55:55.991Z,21.63
2022-12-03T02:58:27.090Z,21.60
2022-12-03T03:00:55.363Z,21.58
2022-12-03T03:03:24.112Z,21.56
2022-12-03T03:05:51.572Z,21.58
2022-12-03T03:08:19.050Z,21.54
2022-12-03T03:10:47.646Z,21.54
2022-12-03T03:13:17.677Z,21.53
2022-12-03T03:15:46.254Z,21.52
2022-12-03T03:18:14.841Z,21.55
2022-12-03T03:20:43.365Z,21.53
2022-12-03T03:23:15.564Z,21.57
2022-12-03T03:25:47.275Z,21.60
2022-12-03T03:28:15.838Z,21.51
2022-12-03T03:30:44.041Z,21.61
2022-12-03T03:33:13.477Z,21.68
2022-12-03T03:35:41.839Z,21.65
2022-12-03T03:38:09.749Z,21.63
2022-12-03T03:40:38.295Z,21.61
2022-12-03T03:43:06.685Z,21.62
2022-12-03T03:45:33.933Z,21.59
2022-12-03T03:48:01.538Z,21.56
2022-12-03T03:50:31.922Z,21.57
2022-12-03T03:53:00.465Z,21.51
2022-12-03T03:55:28.113Z,21.55
2022-12-03T03:57:55.474Z,21.69
2022-12-03T04:00:22.983Z,21.87
2022-12-03T04:02:50.154Z,22.12
2022-12-03T04:05:19.445Z,22.27
2022-12-03T04:07:48.054Z,22.32
2022-12-03T04:10:15.681Z,22.29
2022-12-03T04:12:42.889Z,22.31
2022-12-03T04:15:10.344Z,22.26
2022-12-03T04:17:37.425Z,22.24
2022-12-03T04:20:05.805Z,22.23
2022-12-03T04:22:32.922Z,22.21
2022-12-03T04:25:01.384Z,22.07
2022-12-03T04:27:28.493Z,22.11
2022-12-03T04:29:55.593Z,22.13
2022-12-03T04:32:22.685Z,22.05
2022-12-03T04:34:49.832Z,22.00
2022-12-03T04:37:16.952Z,21.96
2022-12-03T04:39:44.166Z,22.00
2022-12-03T04:42:12.665Z,21.94
2022-12-03T04:44:39.777Z,21.93
2022-12-03T04:47:09.597Z,21.93
2022-12-03T04:49:38.427Z,21.83
2022-12-03T04:52:05.745Z,21.88
2022-12-03T04:54:32.939Z,21.82
2022-12-03T04:57:00.430Z,21.72
2022-12-03T04:59:28.992Z,21.69
2022-12-03T05:01:56.257Z,21.66
2022-12-03T05:04:23.584Z,21.65
2022-12-03T05:06:50.963Z,21.61
2022-12-03T05:09:18.151Z,21.61
2022-12-03T05:11:45.307Z,21.64
2022-12-03T05:14:12.649Z,21.71
2022-12-03T05:16:41.253Z,21.79
2022-12-03T05:19:09.064Z,21.76
2022-12-03T05:21:36.482Z,21.80
2022-12-03T05:24:04.226Z,21.78
2022-12-03T05:26:31.333Z,21.80
2022-12-03T05:28:58.426Z,21.79
2022-12-03T05:31:25.577Z,21.81
2022-12-03T05:33:54.068Z,21.83
2022-12-03T05:36:21.163Z,21.80
2022-12-03T05:38:48.242Z,21.75
2022-12-03T05:41:15.418Z,21.88
2022-12-03T05:43:42.526Z,21.93
2022-12-03T05:46:09.648Z,21.97
2022-12-03T05:48:36.770Z,21.71
2022-12-03T05:51:05.226Z,21.69
2022-12-03T05:53:32.313Z,21.72
2022-12-03T05:55:59.463Z,21.87
2022-12-03T05:58:26.583Z,22.50
2022-12-03T06:00:53.707Z,23.00
2022-12-03T06:03:20.941Z,23.12
2022-12-03T06:05:48.207Z,23.09
2022-12-03T06:08:16.733Z,23.19
2022-12-03T06:10:44.015Z,23.05
2022-12-03T06:13:11.117Z,22.92
2022-12-03T06:15:43.504Z,22.74
2022-12-03T06:18:11.195Z,22.61
2022-12-03T06:20:38.554Z,22.25
2022-12-03T06:23:05.664Z,22.13
2022-12-03T06:25:34.283Z,22.03
2022-12-03T06:28:01.393Z,22.02
2022-12-03T06:30:28.518Z,21.94
2022-12-03T06:32:55.640Z,22.02
2022-12-03T06:35:22.755Z,22.40
2022-12-03T06:37:49.855Z,22.84
2022-12-03T06:40:17.177Z,23.12
2022-12-03T06:42:45.643Z,23.28
2022-12-03T06:45:12.786Z,23.33
2022-12-03T06:47:39.933Z,23.31
2022-12-03T06:50:08.617Z,23.25
2022-12-03T06:52:35.741Z,23.22
2022-12-03T06:55:03.434Z,23.14
2022-12-03T06:57:30.706Z,23.09
2022-12-03T06:59:59.192Z,23.04
2022-12-03T07:02:26.347Z,23.01
2022-12-03T07:04:53.721Z,23.01
2022-12-03T07:07:21.190Z,22.98
2022-12-03T07:09:48.337Z,22.92
2022-12-03T07:12:15.419Z,22.94
2022-12-03T07:14:42.501Z,22.92
2022-12-03T07:17:10.954Z,22.86
2022-12-03T07:19:38.064Z,22.89
2022-12-03T07:22:05.158Z,22.82
2022-12-03T07:24:32.565Z,22.79
2022-12-03T07:26:59.671Z,22.67
2022-12-03T07:29:26.790Z,22.70
2022-12-03T07:31:53.981Z,22.68
2022-12-03T07:34:23.458Z,22.66
2022-12-03T07:36:50.586Z,22.65
2022-12-03T07:39:17.710Z,22.60
2022-12-03T07:41:44.839Z,22.61
2022-12-03T07:44:14.611Z,22.63
2022-12-03T07:46:42.451Z,22.59
2022-12-03T07:49:09.961Z,22.51
2022-12-03T07:51:38.447Z,22.53
2022-12-03T07:54:05.588Z,22.47
2022-12-03T07:56:32.696Z,22.22
2022-12-03T07:58:59.798Z,22.44
2022-12-03T08:01:27.040Z,22.38
2022-12-03T08:03:54.190Z,22.43
2022-12-03T08:06:21.296Z,22.29
2022-12-03T08:08:49.770Z,22.26
2022-12-03T08:11:16.941Z,22.30
2022-12-03T08:13:44.132Z,22.27
2022-12-03T08:16:16.391Z,22.25
2022-12-03T08:18:44.383Z,22.29
2022-12-03T08:21:13.068Z,22.34
2022-12-03T08:23:40.612Z,22.35
2022-12-03T08:26:17.500Z,22.34
2022-12-03T08:28:44.618Z,22.25
2022-12-03T08:31:17.127Z,22.26
2022-12-03T08:33:44.415Z,22.38
2022-12-03T08:36:14.509Z,22.37
2022-12-03T08:38:43.146Z,22.30
2022-12-03T08:41:14.139Z,22.25
2022-12-03T08:43:42.176Z,22.31
2022-12-03T08:46:15.831Z,22.26
2022-12-03T08:48:48.669Z,22.27
2022-12-03T08:51:21.868Z,22.23
2022-12-03T08:53:53.329Z,22.12
2022-12-03T08:56:27.604Z,22.21
2022-12-03T08:58:57.581Z,22.17
2022-12-03T09:01:32.826Z,22.15
2022-12-03T09:04:15.757Z,22.09
2022-12-03T09:06:42.939Z,22.12
2022-12-03T09:09:10.047Z,22.13
2022-12-03T09:11:38.552Z,22.13
2022-12-03T09:14:05.785Z,22.12
2022-12-03T09:16:33.011Z,22.16
2022-12-03T09:19:00.210Z,22.10
2022-12-03T09:21:27.312Z,22.06
2022-12-03T09:23:54.414Z,21.99
2022-12-03T09:26:21.534Z,22.02
2022-12-03T09:28:50.015Z,22.05
2022-12-03T09:31:18.279Z,22.05
2022-12-03T09:33:45.469Z,22.06
2022-12-03T09:36:12.639Z,22.12
2022-12-03T09:38:44.463Z,22.14
2022-12-03T09:41:13.661Z,22.15
2022-12-03T09:44:03.348Z,22.17
2022-12-03T09:46:30.244Z,22.21
2022-12-03T09:48:57.621Z,22.30
2022-12-03T09:51:30.398Z,22.37
2022-12-03T09:53:58.710Z,22.32
2022-12-03T09:56:25.853Z,22.40
2022-12-03T09:58:53.070Z,22.41
2022-12-03T10:01:20.487Z,22.45
2022-12-03T10:03:50.876Z,22.41
2022-12-03T10:06:20.693Z,22.43
2022-12-03T10:08:49.572Z,22.36
2022-12-03T10:11:18.019Z,22.39
2022-12-03T10:13:46.175Z,22.38
2022-12-03T10:16:16.395Z,22.30
2022-12-03T10:18:47.779Z,22.34
2022-12-03T10:21:20.273Z,22.38
2022-12-03T10:23:50.792Z,22.39
2022-12-03T10:26:38.677Z,22.46
2022-12-03T10:29:12.813Z,22.65
2022-12-03T10:31:39.966Z,22.58
2022-12-03T10:34:06.996Z,22.63
2022-12-03T10:36:35.641Z,22.59
2022-12-03T10:39:09.014Z,22.58
2022-12-03T10:41:37.236Z,22.58
2022-12-03T10:44:14.586Z,22.63
2022-12-03T10:46:42.350Z,22.67
2022-12-03T10:49:11.596Z,22.71
2022-12-03T10:51:40.125Z,22.74
2022-12-03T10:54:17.026Z,22.77
2022-12-03T10:56:45.213Z,22.67
2022-12-03T10:59:16.324Z,22.73
2022-12-03T11:01:43.959Z,22.70
2022-12-03T11:04:20.481Z,22.72
2022-12-03T11:06:49.847Z,22.59
2022-12-03T11:09:21.373Z,22.49
2022-12-03T11:11:49.723Z,22.43
2022-12-03T11:14:53.564Z,22.46
2022-12-03T11:17:45.864Z,22.46
2022-12-03T11:21:06.946Z,22.54
2022-12-03T11:24:18.903Z,22.62
2022-12-03T11:27:25.280Z,22.72
2022-12-03T11:29:58.533Z,22.75
2022-12-03T11:32:58.966Z,22.75
2022-12-03T11:35:27.702Z,22.80
2022-12-03T11:37:54.796Z,22.78
2022-12-03T11:40:37.700Z,22.81
2022-12-03T11:43:09.836Z,22.77
2022-12-03T11:45:38.385Z,22.73
2022-12-03T11:48:11.954Z,22.87
2022-12-03T11:50:41.316Z,22.47
2022-12-03T11:53:15.682Z,22.72
2022-12-03T11:55:46.665Z,22.69
2022-12-03T11:58:17.994Z,22.68
2022-12-03T12:00:49.922Z,22.73
2022-12-03T12:03:26.477Z,22.67
2022-12-03T12:06:05.319Z,22.60
2022-12-03T12:08:33.516Z,22.54
2022-12-03T12:11:02.757Z,22.70
2022-12-03T12:13:54.824Z,22.84
2022-12-03T12:16:52.241Z,22.92
2022-12-03T12:19:33.386Z,22.96
2022-12-03T12:22:28.993Z,22.91
2022-12-03T12:24:57.370Z,22.95
2022-12-03T12:27:34.773Z,22.94
2022-12-03T12:30:05.727Z,22.86
2022-12-03T12:32:38.288Z,22.97
2022-12-03T12:35:17.225Z,22.91
2022-12-03T12:37:53.525Z,22.76
2022-12-03T12:40:28.412Z,22.72
2022-12-03T12:42:58.364Z,22.83
2022-12-03T12:45:27.006Z,22.88
2022-12-03T12:48:02.661Z,22.83
2022-12-03T12:50:31.220Z,22.78
2022-12-03T12:53:01.940Z,22.82
2022-12-03T12:55:29.054Z,22.79
2022-12-03T12:58:02.461Z,22.77
2022-12-03T13:00:29.656Z,22.70
2022-12-03T13:02:59.965Z,22.70
2022-12-03T13:05:38.335Z,22.74
2022-12-03T13:08:20.349Z,22.83
2022-12-03T13:10:48.055Z,22.90
2022-12-03T13:13:20.434Z,22.89
2022-12-03T13:15:51.591Z,22.85
2022-12-03T13:18:32.513Z,23.00
2022-12-03T13:20:59.881Z,22.99
2022-12-03T13:23:30.030Z,23.01
2022-12-03T13:26:07.130Z,22.95
2022-12-03T13:28:41.791Z,22.88
2022-12-03T13:31:26.728Z,22.87
2022-12-03T13:33:55.416Z,22.89
2022-12-03T13:36:29.953Z,22.94
2022-12-03T13:38:57.445Z,22.90
2022-12-03T13:41:24.558Z,22.90
2022-12-03T13:43:53.040Z,22.95
2022-12-03T13:46:20.174Z,22.86
2022-12-03T13:48:47.348Z,22.91
2022-12-03T13:51:23.407Z,22.81
2022-12-03T13:53:50.736Z,22.75
2022-12-03T13:56:25.563Z,22.75
2022-12-03T13:58:54.673Z,22.70
2022-12-03T14:01:21.847Z,22.94
2022-12-03T14:03:49.248Z,23.01
2022-12-03T14:06:16.368Z,23.10
2022-12-03T14:08:44.108Z,23.12
2022-12-03T14:11:11.292Z,23.04
2022-12-03T14:13:38.375Z,23.03
2022-12-03T14:16:07.275Z,22.98
2022-12-03T14:18:34.415Z,22.89
2022-12-03T14:21:01.528Z,22.86
2022-12-03T14:23:28.626Z,22.91
2022-12-03T14:25:55.738Z,22.88
2022-12-03T14:28:22.831Z,22.90
2022-12-03T14:30:49.930Z,22.83
2022-12-03T14:33:18.411Z,22.99
2022-12-03T14:35:45.512Z,22.97
2022-12-03T14:38:12.605Z,23.03
2022-12-03T14:40:39.846Z,22.96
2022-12-03T14:43:06.951Z,22.83
2022-12-03T14:45:34.102Z,22.95
2022-12-03T14:48:01.310Z,23.02
2022-12-03T14:50:29.777Z,23.10
2022-12-03T14:52:56.876Z,23.09
2022-12-03T14:55:24.186Z,23.10
2022-12-03T14:57:51.296Z,23.09
2022-12-03T15:00:19.462Z,23.18
2022-12-03T15:02:46.676Z,23.12
2022-12-03T15:05:13.870Z,23.03
2022-12-03T15:07:42.317Z,22.95
2022-12-03T15:10:10.190Z,23.04
2022-12-03T15:12:37.282Z,22.97
2022-12-03T15:15:05.026Z,22.88
2022-12-03T15:17:32.456Z,22.92
2022-12-03T15:19:59.630Z,23.00
2022-12-03T15:22:26.778Z,23.04
2022-12-03T15:24:55.254Z,22.96
2022-12-03T15:27:22.373Z,22.90
2022-12-03T15:29:49.453Z,22.93
2022-12-03T15:32:16.568Z,22.94
2022-12-03T15:34:43.958Z,22.93
2022-12-03T15:37:11.044Z,22.91
2022-12-03T15:39:39.550Z,22.91
2022-12-03T15:42:10.935Z,23.00
2022-12-03T15:44:38.027Z,23.03
2022-12-03T15:47:05.213Z,23.07
2022-12-03T15:49:32.311Z,23.10
2022-12-03T15:51:59.431Z,23.10
2022-12-03T15:54:26.526Z,23.07
2022-12-03T15:56:57.274Z,23.13
2022-12-03T15:59:26.150Z,23.14
2022-12-03T16:01:53.287Z,23.14
2022-12-03T16:04:20.426Z,23.11
2022-12-03T16:06:47.545Z,22.99
2022-12-03T16:09:14.637Z,23.12
2022-12-03T16:11:41.721Z,23.05
2022-12-03T16:14:08.851Z,23.03
2022-12-03T16:16:37.321Z,23.00
2022-12-03T16:19:04.545Z,23.02
2022-12-03T16:21:31.753Z,22.93
2022-12-03T16:23:58.880Z,22.95
2022-12-03T16:26:26.196Z,22.98
2022-12-03T16:28:53.297Z,22.94
2022-12-03T16:31:20.461Z,22.95
2022-12-03T16:33:49.150Z,22.99
2022-12-03T16:36:16.749Z,23.05
2022-12-03T16:38:43.943Z,23.08
2022-12-03T16:41:11.059Z,23.08
2022-12-03T16:43:38.171Z,22.98
2022-12-03T16:46:05.767Z,23.11
2022-12-03T16:48:32.896Z,23.13
2022-12-03T16:51:01.459Z,23.46
2022-12-03T16:53:28.545Z,23.50
2022-12-03T16:55:55.636Z,23.63
2022-12-03T16:58:22.808Z,23.65
2022-12-03T17:00:50.303Z,23.55
2022-12-03T17:03:17.435Z,23.62
2022-12-03T17:05:44.700Z,23.56
2022-12-03T17:08:14.296Z,23.40
2022-12-03T17:10:41.594Z,23.47
2022-12-03T17:13:10.295Z,23.39
2022-12-03T17:15:38.471Z,23.31
2022-12-03T17:18:06.467Z,23.24
2022-12-03T17:20:33.820Z,23.28
2022-12-03T17:23:00.914Z,23.23
2022-12-03T17:25:30.549Z,23.28
2022-12-03T17:27:57.667Z,23.22
2022-12-03T17:30:24.768Z,23.24
2022-12-03T17:32:51.932Z,23.21
2022-12-03T17:35:19.133Z,23.29
2022-12-03T17:37:46.245Z,23.30
2022-12-03T17:40:14.986Z,23.31
2022-12-03T17:42:43.568Z,23.34
2022-12-03T17:45:11.571Z,23.31
2022-12-03T17:47:38.993Z,23.34
2022-12-03T17:50:07.582Z,23.36
2022-12-03T17:52:34.686Z,23.38
2022-12-03T17:55:11.878Z,23.19
2022-12-03T17:57:43.021Z,23.22
2022-12-03T18:00:11.319Z,23.20
2022-12-03T18:02:38.558Z,23.14
2022-12-03T18:05:06.049Z,23.14
2022-12-03T18:07:33.370Z,23.18
2022-12-03T18:10:00.650Z,23.18
2022-12-03T18:12:27.773Z,23.26
2022-12-03T18:14:56.257Z,23.25
2022-12-03T18:17:23.500Z,23.29
2022-12-03T18:19:50.618Z,23.32
2022-12-03T18:22:18.031Z,23.32
2022-12-03T18:24:47.607Z,23.32
2022-12-03T18:27:17.505Z,23.29
2022-12-03T18:29:44.622Z,23.34
2022-12-03T18:32:27.899Z,23.33
2022-12-03T18:34:55.795Z,23.33
2022-12-03T18:37:26.161Z,23.36
2022-12-03T18:39:53.859Z,23.35
2022-12-03T18:42:22.337Z,23.37
2022-12-03T18:44:51.486Z,23.37
2022-12-03T18:47:22.052Z,23.26
2022-12-03T18:49:49.581Z,23.22
2022-12-03T18:52:18.765Z,23.13
2022-12-03T18:54:45.958Z,23.14
2022-12-03T18:57:13.099Z,23.10
2022-12-03T18:59:40.269Z,23.06
2022-12-03T19:02:13.079Z,23.12
2022-12-03T19:04:46.734Z,23.34
2022-12-03T19:07:14.384Z,23.35
2022-12-03T19:09:42.120Z,23.35
2022-12-03T19:12:14.421Z,23.36
2022-12-03T19:14:42.087Z,23.37
2022-12-03T19:17:09.201Z,23.31
2022-12-03T19:19:37.039Z,23.29
2022-12-03T19:22:05.524Z,23.32
2022-12-03T19:24:32.848Z,23.35
2022-12-03T19:26:59.938Z,23.36
2022-12-03T19:29:27.056Z,23.37
2022-12-03T19:31:54.223Z,23.32
2022-12-03T19:34:21.363Z,23.37
2022-12-03T19:36:48.477Z,23.39
2022-12-03T19:39:16.952Z,23.31
2022-12-03T19:41:44.063Z,23.22
2022-12-03T19:44:12.572Z,23.15
2022-12-03T19:46:39.728Z,23.11
2022-12-03T19:49:06.936Z,23.12
2022-12-03T19:51:35.557Z,23.10
2022-12-03T19:54:03.418Z,23.15
2022-12-03T19:56:31.864Z,23.17
2022-12-03T19:58:59.140Z,23.30
2022-12-03T20:01:29.496Z,23.34
2022-12-03T20:03:58.861Z,23.31
2022-12-03T20:06:28.144Z,23.36
2022-12-03T20:08:56.394Z,23.38
2022-12-03T20:11:25.726Z,23.42
2022-12-03T20:13:55.889Z,23.36
2022-12-03T20:16:24.270Z,23.42
2022-12-03T20:18:55.690Z,23.38
2022-12-03T20:21:22.845Z,23.42
2022-12-03T20:23:50.111Z,23.42
2022-12-03T20:26:19.786Z,23.42
2022-12-03T20:28:47.755Z,23.42
2022-12-03T20:31:18.686Z,23.36
2022-12-03T20:33:48.353Z,23.31
2022-12-03T20:36:20.745Z,23.21
2022-12-03T20:38:48.518Z,23.16
2022-12-03T20:41:17.634Z,23.15
2022-12-03T20:43:45.441Z,23.08
2022-12-03T20:46:14.708Z,23.02
2022-12-03T20:48:44.364Z,23.31
2022-12-03T20:51:13.563Z,23.34
2022-12-03T20:53:41.281Z,23.37
2022-12-03T20:56:09.047Z,23.39
2022-12-03T20:58:36.307Z,23.38
2022-12-03T21:01:14.067Z,23.42
2022-12-03T21:03:44.371Z,23.49
2022-12-03T21:06:12.624Z,23.46
2022-12-03T21:08:41.978Z,23.48
2022-12-03T21:11:11.176Z,23.39
2022-12-03T21:13:38.780Z,23.38
2022-12-03T21:16:07.799Z,23.31
2022-12-03T21:18:35.239Z,23.46
2022-12-03T21:21:05.165Z,23.45
2022-12-03T21:23:33.346Z,23.33
2022-12-03T21:26:05.382Z,23.30
2022-12-03T21:28:32.620Z,23.30
2022-12-03T21:31:01.162Z,23.26
2022-12-03T21:33:29.520Z,23.21
2022-12-03T21:35:57.254Z,23.20
2022-12-03T21:38:26.984Z,23.27
2022-12-03T21:40:54.180Z,23.39
2022-12-03T21:43:21.801Z,23.47
2022-12-03T21:45:49.935Z,23.48
2022-12-03T21:48:17.737Z,23.50
2022-12-03T21:50:45.934Z,23.51
2022-12-03T21:53:13.118Z,23.52
2022-12-03T21:55:41.676Z,23.50
2022-12-03T21:58:08.937Z,23.50
2022-12-03T22:00:36.435Z,23.50
2022-12-03T22:03:03.761Z,23.49
2022-12-03T22:05:30.940Z,23.56
2022-12-03T22:07:58.115Z,23.59
2022-12-03T22:10:25.500Z,23.55
2022-12-03T22:12:53.965Z,23.47
2022-12-03T22:15:21.082Z,23.44
2022-12-03T22:17:48.279Z,23.32
2022-12-03T22:20:15.604Z,23.35
2022-12-03T22:22:42.748Z,23.29
2022-12-03T22:25:10.005Z,23.34
2022-12-03T22:27:37.123Z,23.26
2022-12-03T22:30:07.107Z,23.34
2022-12-03T22:32:34.240Z,23.39
2022-12-03T22:35:01.374Z,23.45
2022-12-03T22:37:28.516Z,23.48
2022-12-03T22:39:57.315Z,23.52
2022-12-03T22:42:24.830Z,23.42
2022-12-03T22:44:51.928Z,23.43
2022-12-03T22:47:20.437Z,23.46
2022-12-03T22:49:47.546Z,23.56
2022-12-03T22:52:14.660Z,23.58
2022-12-03T22:54:44.635Z,23.52
2022-12-03T22:57:11.822Z,23.51
2022-12-03T22:59:38.943Z,23.48
2022-12-03T23:02:06.126Z,23.53
2022-12-03T23:04:34.601Z,23.48
2022-12-03T23:07:01.703Z,23.42
2022-12-03T23:09:29.031Z,23.35
2022-12-03T23:11:56.145Z,23.34
2022-12-03T23:14:23.251Z,23.25
2022-12-03T23:16:50.523Z,23.22
2022-12-03T23:19:17.636Z,23.26
2022-12-03T23:21:46.108Z,23.31
2022-12-03T23:24:13.245Z,23.39
2022-12-03T23:26:40.352Z,23.39
2022-12-03T23:29:07.615Z,23.44
2022-12-03T23:31:35.247Z,23.40
2022-12-03T23:34:03.340Z,23.47
2022-12-03T23:36:32.698Z,23.51
2022-12-03T23:39:01.272Z,23.51
2022-12-03T23:41:28.467Z,23.46
2022-12-03T23:43:56.565Z,23.35
2022-12-03T23:46:25.788Z,23.36
2022-12-03T23:48:53.153Z,23.24
2022-12-03T23:51:23.461Z,23.13
2022-12-03T23:53:51.257Z,23.08
2022-12-03T23:56:22.291Z,23.04
2022-12-03T23:58:49.450Z,22.90
